createdAt,value
2022-08-05T00:01:36.032Z,10.63
2022-08-05T00:04:55.735Z,11.70
2022-08-05T00:08:03.171Z,11.50
2022-08-05T00:11:20.739Z,10.80
2022-08-05T00:14:33.537Z,11.18
2022-08-05T00:17:38.795Z,15.77
2022-08-05T00:20:46.945Z,11.57
2022-08-05T00:24:10.575Z,11.57
2022-08-05T00:27:16.963Z,13.75
2022-08-05T00:30:31.912Z,10.95
2022-08-05T00:34:54.486Z,11.02
2022-08-05T00:37:11.129Z,12.32
2022-08-05T00:40:28.453Z,12.63
2022-08-05T00:43:47.336Z,14.60
2022-08-05T00:47:01.869Z,11.88
2022-08-05T00:50:10.538Z,12.45
2022-08-05T00:53:44.847Z,11.80
2022-08-05T00:56:51.578Z,11.20
2022-08-05T00:59:57.319Z,11.20
2022-08-05T01:03:02.566Z,13.18
2022-08-05T01:06:15.279Z,13.70
2022-08-05T01:09:21.322Z,11.40
2022-08-05T01:12:29.837Z,15.38
2022-08-05T01:15:41.142Z,11.50
2022-08-05T01:18:56.702Z,10.80
2022-08-05T01:22:24.184Z,12.52
2022-08-05T01:26:11.518Z,11.55
2022-08-05T01:29:23.974Z,15.48
2022-08-05T01:32:35.171Z,12.25
2022-08-05T01:35:50.709Z,11.07
2022-08-05T01:39:00.118Z,11.63
2022-08-05T01:42:09.717Z,12.25
2022-08-05T01:45:17.007Z,11.23
2022-08-05T01:48:22.842Z,11.63
2022-08-05T01:51:29.385Z,12.55
2022-08-05T01:54:46.287Z,12.32
2022-08-05T01:58:14.655Z,18.05
2022-08-05T02:01:24.699Z,11.68
2022-08-05T02:04:36.283Z,12.63
2022-08-05T02:07:43.072Z,12.45
2022-08-05T02:11:08.517Z,11.45
2022-08-05T02:14:22.850Z,12.15
2022-08-05T02:18:28.338Z,14.95
2022-08-05T02:21:02.734Z,17.77
2022-08-05T02:24:12.255Z,17.90
2022-08-05T02:27:30.011Z,15.13
2022-08-05T02:30:56.489Z,12.57
2022-08-05T02:34:09.893Z,13.40
2022-08-05T02:37:16.207Z,12.20
2022-08-05T02:40:24.324Z,14.50
2022-08-05T02:43:31.257Z,14.43
2022-08-05T02:46:53.544Z,13.13
2022-08-05T02:50:09.482Z,12.70
2022-08-05T02:53:19.426Z,13.63
2022-08-05T02:56:27.339Z,14.40
2022-08-05T02:59:47.905Z,14.57
2022-08-05T03:02:56.636Z,11.15
2022-08-05T03:06:56.096Z,12.90
2022-08-05T03:09:37.679Z,11.75
2022-08-05T03:12:43.939Z,17.30
2022-08-05T03:15:49.678Z,12.52
2022-08-05T03:18:57.036Z,17.27
2022-08-05T03:22:04.745Z,12.80
2022-08-05T03:25:32.742Z,10.75
2022-08-05T03:28:49.469Z,12.32
2022-08-05T03:32:00.505Z,16.67
2022-08-05T03:35:08.917Z,13.00
2022-08-05T03:38:16.189Z,11.57
2022-08-05T03:41:24.627Z,11.65
2022-08-05T03:44:30.446Z,11.23
2022-08-05T03:47:41.326Z,14.63
2022-08-05T03:52:38.508Z,13.45
2022-08-05T03:55:51.842Z,12.05
2022-08-05T03:57:59.018Z,11.68
2022-08-05T04:01:07.297Z,14.25
2022-08-05T04:04:12.359Z,11.77
2022-08-05T04:07:24.882Z,14.25
2022-08-05T04:10:37.369Z,16.20
2022-08-05T04:13:50.281Z,14.38
2022-08-05T04:16:56.718Z,14.05
2022-08-05T04:20:02.573Z,16.67
2022-08-05T04:23:12.537Z,13.23
2022-08-05T04:26:22.777Z,13.32
2022-08-05T04:29:27.986Z,13.50
2022-08-05T04:32:34.990Z,18.65
2022-08-05T04:36:16.716Z,15.70
2022-08-05T04:39:07.401Z,14.27
2022-08-05T04:42:15.041Z,15.63
2022-08-05T04:45:31.175Z,15.07
2022-08-05T04:48:45.547Z,16.65
2022-08-05T04:51:51.092Z,16.67
2022-08-05T04:55:14.159Z,19.38
2022-08-05T04:58:22.197Z,16.33
2022-08-05T05:01:33.762Z,21.10
2022-08-05T05:04:52.341Z,15.27
2022-08-05T05:08:02.108Z,14.98
2022-08-05T05:11:07.962Z,15.70
2022-08-05T05:14:16.090Z,15.73
2022-08-05T05:17:24.491Z,17.38
2022-08-05T05:20:30.275Z,17.52
2022-08-05T05:24:01.948Z,15.32
2022-08-05T05:27:01.313Z,15.57
2022-08-05T05:30:15.350Z,19.83
2022-08-05T05:33:58.709Z,18.23
2022-08-05T05:36:59.021Z,15.23
2022-08-05T05:40:04.567Z,15.65
2022-08-05T05:43:16.349Z,15.60
2022-08-05T05:46:34.828Z,20.38
2022-08-05T05:49:45.294Z,15.63
2022-08-05T05:53:01.743Z,15.77
2022-08-05T05:56:32.543Z,15.25
2022-08-05T05:59:40.317Z,15.75
2022-08-05T06:02:47.778Z,15.02
2022-08-05T06:05:54.172Z,14.55
2022-08-05T06:09:01.122Z,16.27
2022-08-05T06:12:09.724Z,13.75
2022-08-05T06:15:23.904Z,15.13
2022-08-05T06:18:31.858Z,13.85
2022-08-05T06:21:42.905Z,15.23
2022-08-05T06:24:55.220Z,13.75
2022-08-05T06:28:11.537Z,14.65
2022-08-05T06:31:30.521Z,14.15
2022-08-05T06:34:38.583Z,11.90
2022-08-05T06:37:57.305Z,12.75
2022-08-05T06:41:03.664Z,13.63
2022-08-05T06:44:08.999Z,10.18
2022-08-05T06:48:11.305Z,11.50
2022-08-05T06:50:40.631Z,10.63
2022-08-05T06:53:53.653Z,11.65
2022-08-05T06:57:57.691Z,10.55
2022-08-05T07:00:25.497Z,10.63
2022-08-05T07:03:33.217Z,9.40
2022-08-05T07:06:39.857Z,7.75
2022-08-05T07:09:45.572Z,8.93
2022-08-05T07:13:18.169Z,9.60
2022-08-05T07:18:07.104Z,7.97
2022-08-05T07:20:37.010Z,7.70
2022-08-05T07:23:49.764Z,7.75
2022-08-05T07:26:55.766Z,7.93
2022-08-05T07:30:28.508Z,8.30
2022-08-05T07:33:35.103Z,7.63
2022-08-05T07:36:43.028Z,6.72
2022-08-05T07:40:26.088Z,6.82
2022-08-05T07:43:20.788Z,9.07
2022-08-05T07:46:27.495Z,7.28
2022-08-05T07:49:32.542Z,7.28
2022-08-05T07:52:48.641Z,7.47
2022-08-05T07:56:05.777Z,7.28
2022-08-05T07:59:31.046Z,9.45
2022-08-05T08:03:15.135Z,7.38
2022-08-05T08:06:10.929Z,7.35
2022-08-05T08:09:15.955Z,6.10
2022-08-05T08:12:37.448Z,5.43
2022-08-05T08:16:35.317Z,6.30
2022-08-05T08:19:37.956Z,5.45
2022-08-05T08:22:37.559Z,5.10
2022-08-05T08:25:59.961Z,5.30
2022-08-05T08:29:29.319Z,5.20
2022-08-05T08:32:36.262Z,4.45
2022-08-05T08:35:52.806Z,4.40
2022-08-05T08:39:15.194Z,4.68
2022-08-05T08:42:50.680Z,5.25
2022-08-05T08:45:59.591Z,4.05
2022-08-05T08:50:12.806Z,4.38
2022-08-05T08:52:33.403Z,5.63
2022-08-05T08:56:03.818Z,5.20
2022-08-05T08:59:14.655Z,4.40
2022-08-05T09:02:26.961Z,4.65
2022-08-05T09:05:38.913Z,4.70
2022-08-05T09:08:58.120Z,7.53
2022-08-05T09:12:14.461Z,3.83
2022-08-05T09:15:27.569Z,4.70
2022-08-05T09:18:42.629Z,3.75
2022-08-05T09:22:22.849Z,6.40
2022-08-05T09:25:24.296Z,3.97
2022-08-05T09:28:48.823Z,3.97
2022-08-05T09:32:42.299Z,4.25
2022-08-05T09:35:32.772Z,4.10
2022-08-05T09:38:38.035Z,4.25
2022-08-05T09:42:00.810Z,4.00
2022-08-05T09:46:02.693Z,4.00
2022-08-05T09:48:37.063Z,4.38
2022-08-05T09:51:44.687Z,3.80
2022-08-05T09:55:06.246Z,3.50
2022-08-05T09:58:31.333Z,4.22
2022-08-05T10:01:45.859Z,4.20
2022-08-05T10:04:53.142Z,4.05
2022-08-05T10:08:34.864Z,4.07
2022-08-05T10:11:35.013Z,4.50
2022-08-05T10:14:40.521Z,4.32
2022-08-05T10:18:11.785Z,4.72
2022-08-05T10:21:16.912Z,3.90
2022-08-05T10:24:24.981Z,4.00
2022-08-05T10:28:12.980Z,4.10
2022-08-05T10:32:48.964Z,5.15
2022-08-05T10:34:25.860Z,4.60
2022-08-05T10:37:40.372Z,4.80
2022-08-05T10:41:04.844Z,4.53
2022-08-05T10:44:17.321Z,7.07
2022-08-05T10:47:26.100Z,5.40
2022-08-05T10:50:36.556Z,5.15
2022-08-05T10:53:45.544Z,5.35
2022-08-05T10:56:55.935Z,4.75
2022-08-05T11:00:19.805Z,6.07
2022-08-05T11:03:27.112Z,6.63
2022-08-05T11:06:33.455Z,4.93
2022-08-05T11:09:46.130Z,4.75
2022-08-05T11:12:55.180Z,12.00
2022-08-05T11:16:33.830Z,6.50
2022-08-05T11:20:10.369Z,5.90
2022-08-05T11:24:04.678Z,6.32
2022-08-05T11:27:45.756Z,6.20
2022-08-05T11:31:58.661Z,8.95
2022-08-05T11:34:54.446Z,35.70
2022-08-05T11:38:30.195Z,17.40
2022-08-05T11:41:54.452Z,8.82
2022-08-05T11:44:56.813Z,6.85
2022-08-05T11:48:11.681Z,5.97
2022-08-05T11:51:44.811Z,6.70
2022-08-05T11:54:43.451Z,7.18
2022-08-05T11:58:09.111Z,13.80
2022-08-05T12:01:19.071Z,9.88
2022-08-05T12:04:26.836Z,26.70
2022-08-05T12:08:08.420Z,14.82
2022-08-05T12:11:05.493Z,7.97
2022-08-05T12:14:12.700Z,15.88
2022-08-05T12:18:03.842Z,15.75
2022-08-05T12:20:45.412Z,9.77
2022-08-05T12:24:00.175Z,8.23
2022-08-05T12:27:21.672Z,11.88
2022-08-05T12:30:45.729Z,9.65
2022-08-05T12:33:51.435Z,8.07
2022-08-05T12:37:01.475Z,8.48
2022-08-05T12:40:11.484Z,10.82
2022-08-05T12:43:32.386Z,16.05
2022-08-05T12:46:40.895Z,12.90
2022-08-05T12:50:04.098Z,14.20
2022-08-05T12:53:18.853Z,11.85
2022-08-05T12:56:34.156Z,12.60
2022-08-05T13:01:58.221Z,11.27
2022-08-05T13:03:15.424Z,11.90
2022-08-05T13:06:20.729Z,11.70
2022-08-05T13:09:28.944Z,11.88
2022-08-05T13:12:34.102Z,12.27
2022-08-05T13:15:52.991Z,12.85
2022-08-05T13:18:58.882Z,17.02
2022-08-05T13:22:04.249Z,13.13
2022-08-05T13:25:19.467Z,15.52
2022-08-05T13:28:27.676Z,14.63
2022-08-05T13:32:03.472Z,17.08
2022-08-05T13:34:58.373Z,15.25
2022-08-05T13:38:04.852Z,13.68
2022-08-05T13:41:15.639Z,14.57
2022-08-05T13:44:21.841Z,14.00
2022-08-05T13:47:35.541Z,14.02
2022-08-05T13:50:55.352Z,14.15
2022-08-05T13:54:01.114Z,15.02
2022-08-05T13:57:09.979Z,14.63
2022-08-05T14:00:16.032Z,14.10
2022-08-05T14:03:22.810Z,13.32
2022-08-05T14:06:28.676Z,14.25
2022-08-05T14:09:35.610Z,15.43
2022-08-05T14:12:54.594Z,19.80
2022-08-05T14:16:07.500Z,18.10
2022-08-05T14:19:16.253Z,18.38
2022-08-05T14:22:22.093Z,13.57
2022-08-05T14:25:28.468Z,14.43
2022-08-05T14:28:36.866Z,19.73
2022-08-05T14:32:13.017Z,14.30
2022-08-05T14:35:22.868Z,13.55
2022-08-05T14:38:34.127Z,10.98
2022-08-05T14:42:02.433Z,11.13
2022-08-05T14:45:10.279Z,11.43
2022-08-05T14:48:32.697Z,11.68
2022-08-05T14:51:42.781Z,12.27
2022-08-05T14:54:53.086Z,11.18
2022-08-05T14:57:59.014Z,10.25
2022-08-05T15:01:06.716Z,9.98
2022-08-05T15:04:22.453Z,11.02
2022-08-05T15:08:05.698Z,10.68
2022-08-05T15:10:53.311Z,10.52
2022-08-05T15:14:00.235Z,10.02
2022-08-05T15:17:20.826Z,9.27
2022-08-05T15:20:31.837Z,8.18
2022-08-05T15:23:38.104Z,6.93
2022-08-05T15:26:43.200Z,5.85
2022-08-05T15:29:49.200Z,5.43
2022-08-05T15:32:56.361Z,5.30
2022-08-05T15:36:03.627Z,5.40
2022-08-05T15:41:00.214Z,5.15
2022-08-05T15:42:57.556Z,4.75
2022-08-05T15:46:01.375Z,4.43
2022-08-05T15:49:09.931Z,4.68
2022-08-05T15:52:29.261Z,4.60
2022-08-05T15:56:04.286Z,4.65
2022-08-05T15:59:07.671Z,4.60
2022-08-05T16:02:14.925Z,4.68
2022-08-05T16:05:28.508Z,4.47
2022-08-05T16:08:33.761Z,4.63
2022-08-05T16:11:43.487Z,5.18
2022-08-05T16:14:48.727Z,4.90
2022-08-05T16:17:57.837Z,4.47
2022-08-05T16:21:05.139Z,4.18
2022-08-05T16:24:20.573Z,4.20
2022-08-05T16:27:59.740Z,4.53
2022-08-05T16:31:02.941Z,4.78
2022-08-05T16:34:09.633Z,5.18
2022-08-05T16:38:03.294Z,4.40
2022-08-05T16:40:41.914Z,4.75
2022-08-05T16:43:56.318Z,5.00
2022-08-05T16:47:03.290Z,4.95
2022-08-05T16:50:12.874Z,4.45
2022-08-05T16:53:22.971Z,4.07
2022-08-05T16:56:41.477Z,3.90
2022-08-05T17:00:01.571Z,3.90
2022-08-05T17:03:20.528Z,3.65
2022-08-05T17:06:26.480Z,3.83
2022-08-05T17:09:57.563Z,3.33
2022-08-05T17:12:58.612Z,3.50
2022-08-05T17:16:27.615Z,3.25
2022-08-05T17:19:32.371Z,3.35
2022-08-05T17:22:39.566Z,3.33
2022-08-05T17:25:46.691Z,5.07
2022-08-05T17:28:51.913Z,3.50
2022-08-05T17:31:58.909Z,3.70
2022-08-05T17:35:04.935Z,4.85
2022-08-05T17:38:13.401Z,13.32
2022-08-05T17:42:28.441Z,10.75
2022-08-05T17:44:50.255Z,13.25
2022-08-05T17:47:57.110Z,9.52
2022-08-05T17:51:02.238Z,5.65
2022-08-05T17:54:14.365Z,4.75
2022-08-05T17:57:29.810Z,4.70
2022-08-05T18:00:36.412Z,5.97
2022-08-05T18:03:59.720Z,3.72
2022-08-05T18:07:12.519Z,3.70
2022-08-05T18:10:21.428Z,4.38
2022-08-05T18:13:28.104Z,4.63
2022-08-05T18:16:51.330Z,4.78
2022-08-05T18:20:16.217Z,5.20
2022-08-05T18:23:22.132Z,5.60
2022-08-05T18:26:31.854Z,4.82
2022-08-05T18:29:41.042Z,4.85
2022-08-05T18:32:53.148Z,4.93
2022-08-05T18:36:00.477Z,4.47
2022-08-05T18:39:42.566Z,4.60
2022-08-05T18:42:37.614Z,5.20
2022-08-05T18:45:44.343Z,4.70
2022-08-05T18:48:52.743Z,4.47
2022-08-05T18:52:16.001Z,4.88
2022-08-05T18:55:21.828Z,4.90
2022-08-05T18:58:28.852Z,5.25
2022-08-05T19:01:48.245Z,5.95
2022-08-05T19:06:05.867Z,7.25
2022-08-05T19:08:30.652Z,5.07
2022-08-05T19:11:54.792Z,4.40
2022-08-05T19:15:02.454Z,4.38
2022-08-05T19:18:20.806Z,4.65
2022-08-05T19:21:34.275Z,6.05
2022-08-05T19:24:40.498Z,4.63
2022-08-05T19:28:01.555Z,4.28
2022-08-05T19:31:13.575Z,5.35
2022-08-05T19:34:21.466Z,4.00
2022-08-05T19:37:35.190Z,3.72
2022-08-05T19:40:52.594Z,4.68
2022-08-05T19:44:05.750Z,4.65
2022-08-05T19:47:15.331Z,4.90
2022-08-05T19:50:23.081Z,5.00
2022-08-05T19:54:05.380Z,4.38
2022-08-05T19:56:56.270Z,5.10
2022-08-05T20:00:04.470Z,4.35
2022-08-05T20:03:20.515Z,5.20
2022-08-05T20:06:29.223Z,4.50
2022-08-05T20:09:55.151Z,4.75
2022-08-05T20:12:59.556Z,3.88
2022-08-05T20:16:05.039Z,4.07
2022-08-05T20:19:11.471Z,3.75
2022-08-05T20:22:19.885Z,4.38
2022-08-05T20:25:25.652Z,4.55
2022-08-05T20:28:39.371Z,4.53
2022-08-05T20:31:52.325Z,4.35
2022-08-05T20:35:00.159Z,4.80
2022-08-05T20:38:08.286Z,5.90
2022-08-05T20:41:17.660Z,4.40
2022-08-05T20:44:34.634Z,4.47
2022-08-05T20:47:43.164Z,5.45
2022-08-05T20:50:48.340Z,4.55
2022-08-05T20:53:56.215Z,4.47
2022-08-05T20:57:03.481Z,4.00
2022-08-05T21:00:41.248Z,4.15
2022-08-05T21:03:37.107Z,3.75
2022-08-05T21:06:53.689Z,3.83
2022-08-05T21:10:00.111Z,3.88
2022-08-05T21:13:11.058Z,4.05
2022-08-05T21:16:21.273Z,4.25
2022-08-05T21:19:28.510Z,5.95
2022-08-05T21:22:33.659Z,4.28
2022-08-05T21:25:44.486Z,3.60
2022-08-05T21:28:51.041Z,4.93
2022-08-05T21:31:56.918Z,4.70
2022-08-05T21:35:16.661Z,4.57
2022-08-05T21:38:28.630Z,5.78
2022-08-05T21:41:35.788Z,4.55
2022-08-05T21:44:41.138Z,3.92
2022-08-05T21:47:57.085Z,4.50
2022-08-05T21:51:03.218Z,3.55
2022-08-05T21:54:31.001Z,3.95
2022-08-05T21:57:42.593Z,5.97
2022-08-05T22:00:51.204Z,4.25
2022-08-05T22:03:56.797Z,3.72
2022-08-05T22:07:01.912Z,8.18
2022-08-05T22:10:09.206Z,5.10
2022-08-05T22:14:34.612Z,4.22
2022-08-05T22:16:51.861Z,4.63
2022-08-05T22:20:02.598Z,5.13
2022-08-05T22:24:01.269Z,4.93
2022-08-05T22:27:17.605Z,5.10
2022-08-05T22:30:24.191Z,4.38
2022-08-05T22:33:56.594Z,4.90
2022-08-05T22:36:55.323Z,4.90
2022-08-05T22:40:01.385Z,4.55
2022-08-05T22:43:07.178Z,4.35
2022-08-05T22:46:23.602Z,6.28
2022-08-05T22:50:17.773Z,4.55
2022-08-05T22:52:56.581Z,4.68
2022-08-05T22:56:01.723Z,4.03
2022-08-05T22:59:44.223Z,6.38
2022-08-05T23:02:33.907Z,3.92
2022-08-05T23:05:46.170Z,4.40
2022-08-05T23:08:52.307Z,3.45
2022-08-05T23:11:57.743Z,2.75
2022-08-05T23:15:08.734Z,3.20
2022-08-05T23:18:15.894Z,2.38
2022-08-05T23:21:21.217Z,1.85
2022-08-05T23:24:27.071Z,2.40
2022-08-05T23:27:57.818Z,1.70
2022-08-05T23:31:06.967Z,1.10
2022-08-05T23:34:24.647Z,1.20
2022-08-05T23:37:36.599Z,3.95
2022-08-05T23:40:42.676Z,1.23
2022-08-05T23:44:06.347Z,1.10
2022-08-05T23:47:15.808Z,1.75
2022-08-05T23:50:22.796Z,1.35
2022-08-05T23:53:46.938Z,1.10
2022-08-05T23:56:52.110Z,1.15
